sensor_id;sensor_type;location;lat;lon;timestamp;pressure;altitude;pressure_sealevel;temperature;humidity
59337;BME280;45115;52.002;4.686;2023-03-11T00:02:09;100897.56;;;0.43;78.28
59337;BME280;45115;52.002;4.686;2023-03-11T00:04:36;100892.22;;;0.25;79.26
59337;BME280;45115;52.002;4.686;2023-03-11T00:07:04;100899.03;;;0.32;79.11
59337;BME280;45115;52.002;4.686;2023-03-11T00:09:32;100895.03;;;0.40;78.76
59337;BME280;45115;52.002;4.686;2023-03-11T00:11:59;100887.00;;;0.05;79.99
59337;BME280;45115;52.002;4.686;2023-03-11T00:14:27;100898.97;;;-0.01;81.13
59337;BME280;45115;52.002;4.686;2023-03-11T00:16:54;100896.97;;;0.03;80.87
59337;BME280;45115;52.002;4.686;2023-03-11T00:19:21;100898.25;;;-0.05;81.72
59337;BME280;45115;52.002;4.686;2023-03-11T00:21:48;100906.16;;;-0.02;82.47
59337;BME280;45115;52.002;4.686;2023-03-11T00:24:15;100904.03;;;0.05;82.38
59337;BME280;45115;52.002;4.686;2023-03-11T00:26:41;100915.16;;;0.33;81.10
59337;BME280;45115;52.002;4.686;2023-03-11T00:29:08;100922.72;;;0.42;80.49
59337;BME280;45115;52.002;4.686;2023-03-11T00:31:36;100924.25;;;0.48;79.96
59337;BME280;45115;52.002;4.686;2023-03-11T00:34:05;100936.44;;;0.55;79.58
59337;BME280;45115;52.002;4.686;2023-03-11T00:36:32;100933.72;;;0.72;78.60
59337;BME280;45115;52.002;4.686;2023-03-11T00:39:00;100946.06;;;0.93;76.82
59337;BME280;45115;52.002;4.686;2023-03-11T00:41:31;100940.06;;;0.88;77.89
59337;BME280;45115;52.002;4.686;2023-03-11T00:43:57;100950.94;;;0.69;77.46
59337;BME280;45115;52.002;4.686;2023-03-11T00:46:24;100947.88;;;0.43;79.10
59337;BME280;45115;52.002;4.686;2023-03-11T00:48:52;100952.69;;;0.36;79.15
59337;BME280;45115;52.002;4.686;2023-03-11T00:51:19;100944.38;;;0.41;78.05
59337;BME280;45115;52.002;4.686;2023-03-11T00:53:45;100941.28;;;0.48;77.52
59337;BME280;45115;52.002;4.686;2023-03-11T00:56:14;100939.38;;;0.50;77.22
59337;BME280;45115;52.002;4.686;2023-03-11T00:58:43;100948.19;;;0.37;77.73
59337;BME280;45115;52.002;4.686;2023-03-11T01:01:12;100945.63;;;0.34;76.87
59337;BME280;45115;52.002;4.686;2023-03-11T01:03:40;100950.47;;;0.27;75.47
59337;BME280;45115;52.002;4.686;2023-03-11T01:06:10;100958.00;;;0.21;76.78
59337;BME280;45115;52.002;4.686;2023-03-11T01:08:37;100955.03;;;0.08;78.77
59337;BME280;45115;52.002;4.686;2023-03-11T01:11:05;100959.97;;;0.17;77.71
59337;BME280;45115;52.002;4.686;2023-03-11T01:13:32;100961.78;;;0.34;76.63
59337;BME280;45115;52.002;4.686;2023-03-11T01:15:59;100965.91;;;0.24;78.20
59337;BME280;45115;52.002;4.686;2023-03-11T01:18:26;100967.50;;;0.62;73.59
59337;BME280;45115;52.002;4.686;2023-03-11T01:20:53;100968.94;;;0.69;73.63
59337;BME280;45115;52.002;4.686;2023-03-11T01:23:21;100963.56;;;0.52;74.48
59337;BME280;45115;52.002;4.686;2023-03-11T01:25:48;100964.94;;;0.08;75.24
59337;BME280;45115;52.002;4.686;2023-03-11T01:28:15;100976.19;;;-0.20;77.11
59337;BME280;45115;52.002;4.686;2023-03-11T01:30:43;100978.22;;;-0.25;77.30
59337;BME280;45115;52.002;4.686;2023-03-11T01:33:14;100975.50;;;-0.42;78.05
59337;BME280;45115;52.002;4.686;2023-03-11T01:35:41;100972.69;;;-0.59;79.14
59337;BME280;45115;52.002;4.686;2023-03-11T01:38:08;100979.38;;;-0.68;80.31
59337;BME280;45115;52.002;4.686;2023-03-11T01:40:38;100985.09;;;-0.94;81.40
59337;BME280;45115;52.002;4.686;2023-03-11T01:46:14;100985.38;;;-1.20;81.99
59337;BME280;45115;52.002;4.686;2023-03-11T01:48:45;100989.75;;;-1.18;82.72
59337;BME280;45115;52.002;4.686;2023-03-11T01:51:14;100983.88;;;-0.87;80.25
59337;BME280;45115;52.002;4.686;2023-03-11T01:53:42;100992.47;;;-0.79;80.57
59337;BME280;45115;52.002;4.686;2023-03-11T01:56:11;100987.97;;;-0.41;78.65
59337;BME280;45115;52.002;4.686;2023-03-11T01:58:43;100993.34;;;-0.41;78.27
59337;BME280;45115;52.002;4.686;2023-03-11T02:01:13;100972.31;;;-0.33;77.52
59337;BME280;45115;52.002;4.686;2023-03-11T02:03:40;100985.44;;;-0.26;77.93
59337;BME280;45115;52.002;4.686;2023-03-11T02:06:10;100977.78;;;-0.16;76.61
59337;BME280;45115;52.002;4.686;2023-03-11T02:08:40;100983.97;;;-0.14;76.00
59337;BME280;45115;52.002;4.686;2023-03-11T02:11:13;100983.63;;;-0.25;77.31
59337;BME280;45115;52.002;4.686;2023-03-11T02:13:42;100982.28;;;-0.17;76.93
59337;BME280;45115;52.002;4.686;2023-03-11T02:16:10;100990.53;;;-0.20;76.02
59337;BME280;45115;52.002;4.686;2023-03-11T02:18:38;100987.44;;;-0.12;75.85
59337;BME280;45115;52.002;4.686;2023-03-11T02:21:12;100990.94;;;0.09;74.55
59337;BME280;45115;52.002;4.686;2023-03-11T02:23:46;100987.91;;;0.15;73.51
59337;BME280;45115;52.002;4.686;2023-03-11T02:26:21;100992.50;;;0.13;74.42
59337;BME280;45115;52.002;4.686;2023-03-11T02:28:52;100989.78;;;-0.05;74.74
59337;BME280;45115;52.002;4.686;2023-03-11T02:31:20;100996.25;;;-0.09;74.62
59337;BME280;45115;52.002;4.686;2023-03-11T02:33:50;100995.22;;;-0.06;74.65
59337;BME280;45115;52.002;4.686;2023-03-11T02:36:33;100988.63;;;-0.18;75.36
59337;BME280;45115;52.002;4.686;2023-03-11T02:39:01;100983.41;;;-0.39;75.98
59337;BME280;45115;52.002;4.686;2023-03-11T02:41:30;100987.44;;;-0.68;77.59
59337;BME280;45115;52.002;4.686;2023-03-11T02:43:59;100991.34;;;-0.93;78.57
59337;BME280;45115;52.002;4.686;2023-03-11T02:46:28;100991.19;;;-0.90;79.08
59337;BME280;45115;52.002;4.686;2023-03-11T02:48:55;100997.13;;;-1.02;78.94
59337;BME280;45115;52.002;4.686;2023-03-11T02:51:22;100988.72;;;-1.15;79.98
59337;BME280;45115;52.002;4.686;2023-03-11T02:53:52;100988.53;;;-1.31;80.22
59337;BME280;45115;52.002;4.686;2023-03-11T02:56:20;100997.94;;;-1.41;80.45
59337;BME280;45115;52.002;4.686;2023-03-11T02:58:47;100995.59;;;-1.48;80.57
59337;BME280;45115;52.002;4.686;2023-03-11T03:01:15;101011.09;;;-1.55;81.18
59337;BME280;45115;52.002;4.686;2023-03-11T03:03:44;101008.56;;;-1.58;81.79
59337;BME280;45115;52.002;4.686;2023-03-11T03:06:11;101014.91;;;-1.60;81.69
59337;BME280;45115;52.002;4.686;2023-03-11T03:08:37;101016.16;;;-1.69;82.65
59337;BME280;45115;52.002;4.686;2023-03-11T03:11:04;101019.97;;;-1.74;82.95
59337;BME280;45115;52.002;4.686;2023-03-11T03:13:31;101016.94;;;-1.87;83.40
59337;BME280;45115;52.002;4.686;2023-03-11T03:15:59;101027.88;;;-1.91;84.14
59337;BME280;45115;52.002;4.686;2023-03-11T03:18:27;101017.00;;;-2.10;84.52
59337;BME280;45115;52.002;4.686;2023-03-11T03:20:54;101038.91;;;-1.99;85.76
59337;BME280;45115;52.002;4.686;2023-03-11T03:23:21;101031.47;;;-2.14;85.46
59337;BME280;45115;52.002;4.686;2023-03-11T03:25:48;101044.31;;;-2.22;85.92
59337;BME280;45115;52.002;4.686;2023-03-11T03:28:15;101037.69;;;-2.35;86.04
59337;BME280;45115;52.002;4.686;2023-03-11T03:30:44;101051.56;;;-2.47;87.23
59337;BME280;45115;52.002;4.686;2023-03-11T03:33:12;101046.75;;;-2.61;87.53
59337;BME280;45115;52.002;4.686;2023-03-11T03:35:42;101058.56;;;-2.66;88.41
59337;BME280;45115;52.002;4.686;2023-03-11T03:38:15;101062.28;;;-2.70;88.91
59337;BME280;45115;52.002;4.686;2023-03-11T03:40:45;101067.69;;;-2.72;89.76
59337;BME280;45115;52.002;4.686;2023-03-11T03:43:15;101062.41;;;-2.73;89.89
59337;BME280;45115;52.002;4.686;2023-03-11T03:45:43;101064.25;;;-2.75;90.32
59337;BME280;45115;52.002;4.686;2023-03-11T03:48:10;101066.66;;;-2.68;90.06
59337;BME280;45115;52.002;4.686;2023-03-11T03:50:42;101071.13;;;-2.68;90.22
59337;BME280;45115;52.002;4.686;2023-03-11T03:53:13;101072.34;;;-2.77;90.74
59337;BME280;45115;52.002;4.686;2023-03-11T03:55:40;101080.81;;;-2.64;90.51
59337;BME280;45115;52.002;4.686;2023-03-11T03:58:08;101082.78;;;-2.69;90.97
59337;BME280;45115;52.002;4.686;2023-03-11T04:00:35;101069.81;;;-2.81;90.71
59337;BME280;45115;52.002;4.686;2023-03-11T04:03:02;101083.22;;;-2.81;90.92
59337;BME280;45115;52.002;4.686;2023-03-11T04:05:50;101079.72;;;-2.83;91.64
59337;BME280;45115;52.002;4.686;2023-03-11T04:08:18;101080.50;;;-2.80;91.87
59337;BME280;45115;52.002;4.686;2023-03-11T04:10:55;101081.97;;;-2.71;92.04
59337;BME280;45115;52.002;4.686;2023-03-11T04:13:23;101079.75;;;-2.60;92.64
59337;BME280;45115;52.002;4.686;2023-03-11T04:15:49;101080.81;;;-2.64;92.65
59337;BME280;45115;52.002;4.686;2023-03-11T04:18:16;101070.13;;;-2.66;92.14
59337;BME280;45115;52.002;4.686;2023-03-11T04:20:43;101081.28;;;-2.53;92.74
59337;BME280;45115;52.002;4.686;2023-03-11T04:23:14;101080.75;;;-2.63;92.26
59337;BME280;45115;52.002;4.686;2023-03-11T04:25:41;101079.25;;;-2.70;92.16
59337;BME280;45115;52.002;4.686;2023-03-11T04:28:07;101083.78;;;-2.72;92.72
59337;BME280;45115;52.002;4.686;2023-03-11T04:30:34;101075.81;;;-2.73;92.50
59337;BME280;45115;52.002;4.686;2023-03-11T04:33:01;101076.72;;;-2.74;92.03
59337;BME280;45115;52.002;4.686;2023-03-11T04:35:28;101082.31;;;-2.80;92.16
59337;BME280;45115;52.002;4.686;2023-03-11T04:37:55;101078.03;;;-2.86;92.59
59337;BME280;45115;52.002;4.686;2023-03-11T04:40:25;101070.22;;;-2.92;92.79
59337;BME280;45115;52.002;4.686;2023-03-11T04:42:52;101079.94;;;-2.65;93.08
59337;BME280;45115;52.002;4.686;2023-03-11T04:45:20;101081.59;;;-2.61;92.70
59337;BME280;45115;52.002;4.686;2023-03-11T04:47:49;101082.13;;;-2.76;92.83
59337;BME280;45115;52.002;4.686;2023-03-11T04:50:17;101103.00;;;-2.84;92.69
59337;BME280;45115;52.002;4.686;2023-03-11T04:52:45;101093.56;;;-2.95;93.01
59337;BME280;45115;52.002;4.686;2023-03-11T04:55:13;101101.78;;;-3.00;93.67
59337;BME280;45115;52.002;4.686;2023-03-11T04:57:42;101089.66;;;-3.10;93.25
59337;BME280;45115;52.002;4.686;2023-03-11T05:00:12;101100.31;;;-3.08;93.31
59337;BME280;45115;52.002;4.686;2023-03-11T05:02:42;101097.50;;;-3.05;93.83
59337;BME280;45115;52.002;4.686;2023-03-11T05:05:10;101103.94;;;-3.11;93.49
59337;BME280;45115;52.002;4.686;2023-03-11T05:07:38;101105.91;;;-3.16;94.32
59337;BME280;45115;52.002;4.686;2023-03-11T05:10:06;101102.53;;;-3.21;93.67
59337;BME280;45115;52.002;4.686;2023-03-11T05:12:35;101116.22;;;-3.30;93.75
59337;BME280;45115;52.002;4.686;2023-03-11T05:15:04;101118.97;;;-3.31;93.91
59337;BME280;45115;52.002;4.686;2023-03-11T05:17:30;101117.25;;;-3.34;94.65
59337;BME280;45115;52.002;4.686;2023-03-11T05:19:57;101118.38;;;-3.41;93.93
59337;BME280;45115;52.002;4.686;2023-03-11T05:22:29;101114.91;;;-3.43;94.56
59337;BME280;45115;52.002;4.686;2023-03-11T05:24:56;101102.66;;;-3.52;94.12
59337;BME280;45115;52.002;4.686;2023-03-11T05:27:23;101105.31;;;-3.50;94.86
59337;BME280;45115;52.002;4.686;2023-03-11T05:29:54;101123.22;;;-3.52;94.24
59337;BME280;45115;52.002;4.686;2023-03-11T05:32:23;101118.91;;;-3.56;95.48
59337;BME280;45115;52.002;4.686;2023-03-11T05:34:51;101122.69;;;-3.63;95.47
59337;BME280;45115;52.002;4.686;2023-03-11T05:37:18;101122.91;;;-3.69;95.06
59337;BME280;45115;52.002;4.686;2023-03-11T05:39:46;101127.09;;;-3.61;95.94
59337;BME280;45115;52.002;4.686;2023-03-11T05:42:14;101124.25;;;-3.56;95.42
59337;BME280;45115;52.002;4.686;2023-03-11T05:44:41;101128.88;;;-3.61;95.59
59337;BME280;45115;52.002;4.686;2023-03-11T05:47:07;101136.38;;;-3.72;95.68
59337;BME280;45115;52.002;4.686;2023-03-11T05:49:36;101137.19;;;-3.70;95.15
59337;BME280;45115;52.002;4.686;2023-03-11T05:52:03;101142.50;;;-3.69;96.12
59337;BME280;45115;52.002;4.686;2023-03-11T05:54:31;101151.47;;;-3.70;95.72
59337;BME280;45115;52.002;4.686;2023-03-11T05:56:58;101127.66;;;-3.79;95.88
59337;BME280;45115;52.002;4.686;2023-03-11T05:59:25;101148.75;;;-3.68;96.16
59337;BME280;45115;52.002;4.686;2023-03-11T06:01:56;101147.13;;;-3.74;96.17
59337;BME280;45115;52.002;4.686;2023-03-11T06:04:23;101151.66;;;-3.76;96.20
59337;BME280;45115;52.002;4.686;2023-03-11T06:06:51;101155.09;;;-3.72;96.59
59337;BME280;45115;52.002;4.686;2023-03-11T06:09:20;101159.28;;;-3.64;96.19
59337;BME280;45115;52.002;4.686;2023-03-11T06:11:48;101164.69;;;-3.65;96.51
59337;BME280;45115;52.002;4.686;2023-03-11T06:14:16;101162.84;;;-3.63;95.81
59337;BME280;45115;52.002;4.686;2023-03-11T06:16:46;101168.16;;;-3.62;96.19
59337;BME280;45115;52.002;4.686;2023-03-11T06:19:13;101180.41;;;-3.55;96.54
59337;BME280;45115;52.002;4.686;2023-03-11T06:21:44;101180.47;;;-3.56;96.07
59337;BME280;45115;52.002;4.686;2023-03-11T06:24:13;101180.41;;;-3.55;95.91
59337;BME280;45115;52.002;4.686;2023-03-11T06:26:39;101181.06;;;-3.47;97.09
59337;BME280;45115;52.002;4.686;2023-03-11T06:29:12;101177.69;;;-3.25;96.40
59337;BME280;45115;52.002;4.686;2023-03-11T06:31:40;101180.31;;;-3.24;96.71
59337;BME280;45115;52.002;4.686;2023-03-11T06:34:10;101179.38;;;-3.23;95.86
59337;BME280;45115;52.002;4.686;2023-03-11T06:36:37;101185.59;;;-3.22;96.49
59337;BME280;45115;52.002;4.686;2023-03-11T06:39:03;101189.16;;;-3.22;96.43
59337;BME280;45115;52.002;4.686;2023-03-11T06:41:33;101179.38;;;-3.23;95.91
59337;BME280;45115;52.002;4.686;2023-03-11T06:44:01;101186.50;;;-3.22;96.31
59337;BME280;45115;52.002;4.686;2023-03-11T06:46:28;101190.75;;;-3.16;95.96
59337;BME280;45115;52.002;4.686;2023-03-11T06:48:56;101188.84;;;-3.13;95.60
59337;BME280;45115;52.002;4.686;2023-03-11T06:51:23;101197.72;;;-3.11;96.21
59337;BME280;45115;52.002;4.686;2023-03-11T06:53:51;101199.41;;;-3.08;95.82
59337;BME280;45115;52.002;4.686;2023-03-11T06:56:21;101211.28;;;-2.89;96.41
59337;BME280;45115;52.002;4.686;2023-03-11T06:58:54;101213.59;;;-2.79;96.41
59337;BME280;45115;52.002;4.686;2023-03-11T07:01:24;101210.38;;;-2.64;95.83
59337;BME280;45115;52.002;4.686;2023-03-11T07:03:53;101207.25;;;-2.27;96.21
59337;BME280;45115;52.002;4.686;2023-03-11T07:06:23;101205.44;;;-1.57;95.42
59337;BME280;45115;52.002;4.686;2023-03-11T07:08:54;101211.84;;;-0.53;94.17
59337;BME280;45115;52.002;4.686;2023-03-11T07:11:22;101195.53;;;-0.10;93.41
59337;BME280;45115;52.002;4.686;2023-03-11T07:13:51;101206.38;;;0.64;92.57
59337;BME280;45115;52.002;4.686;2023-03-11T07:16:21;101214.94;;;1.44;91.65
59337;BME280;45115;52.002;4.686;2023-03-11T07:18:51;101208.69;;;2.10;90.29
59337;BME280;45115;52.002;4.686;2023-03-11T07:21:20;101219.53;;;2.74;87.26
59337;BME280;45115;52.002;4.686;2023-03-11T07:23:50;101221.53;;;2.55;87.02
59337;BME280;45115;52.002;4.686;2023-03-11T07:26:17;101228.34;;;1.96;87.67
59337;BME280;45115;52.002;4.686;2023-03-11T07:28:44;101228.03;;;1.51;88.89
59337;BME280;45115;52.002;4.686;2023-03-11T07:31:13;101233.16;;;1.22;90.35
59337;BME280;45115;52.002;4.686;2023-03-11T07:33:43;101234.16;;;1.02;89.85
59337;BME280;45115;52.002;4.686;2023-03-11T07:36:12;101235.03;;;1.02;89.05
59337;BME280;45115;52.002;4.686;2023-03-11T07:38:39;101235.56;;;1.28;87.44
59337;BME280;45115;52.002;4.686;2023-03-11T07:41:06;101229.69;;;1.88;86.71
59337;BME280;45115;52.002;4.686;2023-03-11T07:43:35;101224.28;;;2.38;85.94
59337;BME280;45115;52.002;4.686;2023-03-11T07:46:08;101229.56;;;2.87;84.97
59337;BME280;45115;52.002;4.686;2023-03-11T07:48:36;101235.03;;;3.32;84.01
59337;BME280;45115;52.002;4.686;2023-03-11T07:51:08;101223.78;;;3.84;82.89
59337;BME280;45115;52.002;4.686;2023-03-11T07:53:37;101234.59;;;4.13;81.81
59337;BME280;45115;52.002;4.686;2023-03-11T07:56:06;101243.31;;;4.32;81.29
59337;BME280;45115;52.002;4.686;2023-03-11T07:58:35;101235.97;;;4.48;79.43
59337;BME280;45115;52.002;4.686;2023-03-11T08:01:07;101239.56;;;4.49;80.35
59337;BME280;45115;52.002;4.686;2023-03-11T08:03:35;101247.50;;;4.38;80.38
59337;BME280;45115;52.002;4.686;2023-03-11T08:06:02;101244.19;;;4.33;80.27
59337;BME280;45115;52.002;4.686;2023-03-11T08:08:30;101249.31;;;4.23;80.85
59337;BME280;45115;52.002;4.686;2023-03-11T08:10:57;101214.94;;;3.66;80.40
59337;BME280;45115;52.002;4.686;2023-03-11T08:13:23;101259.00;;;3.54;80.63
59337;BME280;45115;52.002;4.686;2023-03-11T08:15:50;101270.41;;;3.29;80.96
59337;BME280;45115;52.002;4.686;2023-03-11T08:18:17;101268.91;;;3.24;81.01
59337;BME280;45115;52.002;4.686;2023-03-11T08:20:43;101272.84;;;3.18;78.22
59337;BME280;45115;52.002;4.686;2023-03-11T08:23:10;101271.91;;;3.19;79.88
59337;BME280;45115;52.002;4.686;2023-03-11T08:25:39;101272.50;;;3.24;80.90
59337;BME280;45115;52.002;4.686;2023-03-11T08:28:16;101241.69;;;3.11;79.89
59337;BME280;45115;52.002;4.686;2023-03-11T08:30:42;101266.03;;;3.42;77.37
59337;BME280;45115;52.002;4.686;2023-03-11T08:33:14;101263.81;;;3.49;76.92
59337;BME280;45115;52.002;4.686;2023-03-11T08:35:41;101283.72;;;3.64;76.10
59337;BME280;45115;52.002;4.686;2023-03-11T08:38:08;101271.56;;;3.71;73.32
59337;BME280;45115;52.002;4.686;2023-03-11T08:40:34;101280.97;;;3.79;73.06
59337;BME280;45115;52.002;4.686;2023-03-11T08:43:03;101280.84;;;3.96;68.85
59337;BME280;45115;52.002;4.686;2023-03-11T08:45:33;101290.81;;;4.10;69.62
59337;BME280;45115;52.002;4.686;2023-03-11T08:48:00;101281.97;;;4.36;67.25
59337;BME280;45115;52.002;4.686;2023-03-11T08:50:27;101284.09;;;4.45;66.82
59337;BME280;45115;52.002;4.686;2023-03-11T08:52:53;101298.75;;;4.42;66.04
59337;BME280;45115;52.002;4.686;2023-03-11T08:55:20;101305.72;;;4.46;64.97
59337;BME280;45115;52.002;4.686;2023-03-11T08:57:53;101288.41;;;4.63;63.83
59337;BME280;45115;52.002;4.686;2023-03-11T09:00:27;101286.47;;;4.79;62.97
59337;BME280;45115;52.002;4.686;2023-03-11T09:02:54;101293.97;;;4.88;63.87
59337;BME280;45115;52.002;4.686;2023-03-11T09:05:20;101299.50;;;5.01;63.84
59337;BME280;45115;52.002;4.686;2023-03-11T09:07:47;101300.84;;;5.22;61.03
59337;BME280;45115;52.002;4.686;2023-03-11T09:10:15;101304.88;;;5.29;60.61
59337;BME280;45115;52.002;4.686;2023-03-11T09:12:42;101306.66;;;5.30;60.83
59337;BME280;45115;52.002;4.686;2023-03-11T09:15:09;101308.78;;;5.25;60.52
59337;BME280;45115;52.002;4.686;2023-03-11T09:17:37;101306.72;;;5.28;62.26
59337;BME280;45115;52.002;4.686;2023-03-11T09:20:05;101298.63;;;5.14;60.11
59337;BME280;45115;52.002;4.686;2023-03-11T09:22:31;101312.97;;;5.16;61.93
59337;BME280;45115;52.002;4.686;2023-03-11T09:24:58;101299.91;;;4.95;62.30
59337;BME280;45115;52.002;4.686;2023-03-11T09:27:31;101305.03;;;4.85;63.76
59337;BME280;45115;52.002;4.686;2023-03-11T09:29:57;101310.69;;;4.96;63.58
59337;BME280;45115;52.002;4.686;2023-03-11T09:32:24;101308.06;;;4.95;64.82
59337;BME280;45115;52.002;4.686;2023-03-11T09:34:52;101305.03;;;4.99;65.74
59337;BME280;45115;52.002;4.686;2023-03-11T09:37:18;101306.38;;;5.06;65.61
59337;BME280;45115;52.002;4.686;2023-03-11T09:39:45;101300.56;;;5.26;64.75
59337;BME280;45115;52.002;4.686;2023-03-11T09:42:18;101304.38;;;5.50;64.11
59337;BME280;45115;52.002;4.686;2023-03-11T09:44:53;101299.63;;;5.93;64.11
59337;BME280;45115;52.002;4.686;2023-03-11T09:47:42;101296.06;;;6.57;62.99
59337;BME280;45115;52.002;4.686;2023-03-11T09:50:20;101299.59;;;7.08;59.31
59337;BME280;45115;52.002;4.686;2023-03-11T09:53:07;101305.19;;;7.42;57.50
59337;BME280;45115;52.002;4.686;2023-03-11T09:55:41;101305.59;;;7.49;57.61
59337;BME280;45115;52.002;4.686;2023-03-11T09:58:16;101311.91;;;7.13;56.67
59337;BME280;45115;52.002;4.686;2023-03-11T10:00:45;101319.34;;;6.73;57.87
59337;BME280;45115;52.002;4.686;2023-03-11T10:03:20;101306.28;;;6.66;60.24
59337;BME280;45115;52.002;4.686;2023-03-11T10:05:53;101320.44;;;6.58;59.59
59337;BME280;45115;52.002;4.686;2023-03-11T10:08:33;101317.94;;;6.55;59.15
59337;BME280;45115;52.002;4.686;2023-03-11T10:11:09;101305.63;;;6.62;59.00
59337;BME280;45115;52.002;4.686;2023-03-11T10:13:44;101305.31;;;6.79;58.77
59337;BME280;45115;52.002;4.686;2023-03-11T10:16:17;101309.44;;;6.85;58.98
59337;BME280;45115;52.002;4.686;2023-03-11T10:18:53;101307.03;;;6.80;59.31
59337;BME280;45115;52.002;4.686;2023-03-11T10:21:34;101309.63;;;6.95;59.24
59337;BME280;45115;52.002;4.686;2023-03-11T10:27:02;101301.72;;;7.28;59.03
59337;BME280;45115;52.002;4.686;2023-03-11T10:29:31;101299.06;;;7.15;58.52
59337;BME280;45115;52.002;4.686;2023-03-11T10:32:09;101298.53;;;6.98;58.08
59337;BME280;45115;52.002;4.686;2023-03-11T10:34:41;101301.16;;;6.74;57.65
59337;BME280;45115;52.002;4.686;2023-03-11T10:37:14;101302.56;;;6.54;57.54
59337;BME280;45115;52.002;4.686;2023-03-11T10:39:45;101308.59;;;6.59;58.74
59337;BME280;45115;52.002;4.686;2023-03-11T10:42:15;101303.69;;;6.52;60.88
59337;BME280;45115;52.002;4.686;2023-03-11T10:44:43;101304.16;;;6.19;59.54
59337;BME280;45115;52.002;4.686;2023-03-11T10:47:15;101313.81;;;5.98;59.03
59337;BME280;45115;52.002;4.686;2023-03-11T10:49:42;101317.56;;;5.83;59.69
59337;BME280;45115;52.002;4.686;2023-03-11T10:52:11;101304.00;;;5.96;60.13
59337;BME280;45115;52.002;4.686;2023-03-11T10:54:40;101320.25;;;6.10;60.63
59337;BME280;45115;52.002;4.686;2023-03-11T10:57:21;101324.03;;;6.07;58.85
59337;BME280;45115;52.002;4.686;2023-03-11T10:59:50;101326.09;;;5.91;59.23
59337;BME280;45115;52.002;4.686;2023-03-11T11:02:28;101330.53;;;5.92;60.31
59337;BME280;45115;52.002;4.686;2023-03-11T11:05:06;101325.44;;;6.39;60.48
59337;BME280;45115;52.002;4.686;2023-03-11T11:07:37;101326.53;;;6.74;58.73
59337;BME280;45115;52.002;4.686;2023-03-11T11:10:14;101323.28;;;6.82;58.07
59337;BME280;45115;52.002;4.686;2023-03-11T11:12:55;101315.00;;;6.71;57.90
59337;BME280;45115;52.002;4.686;2023-03-11T11:15:27;101323.59;;;6.77;57.85
59337;BME280;45115;52.002;4.686;2023-03-11T11:17:56;101331.00;;;6.75;57.91
59337;BME280;45115;52.002;4.686;2023-03-11T11:20:25;101332.00;;;6.87;57.82
59337;BME280;45115;52.002;4.686;2023-03-11T11:22:55;101338.28;;;7.13;56.29
59337;BME280;45115;52.002;4.686;2023-03-11T11:25:28;101333.88;;;7.23;56.00
59337;BME280;45115;52.002;4.686;2023-03-11T11:27:57;101332.25;;;7.33;54.90
59337;BME280;45115;52.002;4.686;2023-03-11T11:30:25;101333.44;;;7.41;55.84
59337;BME280;45115;52.002;4.686;2023-03-11T11:32:52;101317.09;;;7.41;55.25
59337;BME280;45115;52.002;4.686;2023-03-11T11:35:21;101329.91;;;7.52;56.21
59337;BME280;45115;52.002;4.686;2023-03-11T11:37:50;101323.22;;;7.56;55.52
59337;BME280;45115;52.002;4.686;2023-03-11T11:40:26;101318.50;;;7.70;55.58
59337;BME280;45115;52.002;4.686;2023-03-11T11:42:55;101315.19;;;7.78;54.26
59337;BME280;45115;52.002;4.686;2023-03-11T11:45:28;101328.31;;;7.73;54.57
59337;BME280;45115;52.002;4.686;2023-03-11T11:47:58;101324.66;;;7.49;52.68
59337;BME280;45115;52.002;4.686;2023-03-11T11:50:32;101327.22;;;7.63;53.87
59337;BME280;45115;52.002;4.686;2023-03-11T11:53:07;101312.06;;;7.71;52.63
59337;BME280;45115;52.002;4.686;2023-03-11T11:55:39;101314.91;;;7.93;54.70
59337;BME280;45115;52.002;4.686;2023-03-11T11:58:08;101307.69;;;8.16;53.42
59337;BME280;45115;52.002;4.686;2023-03-11T12:00:41;101299.13;;;8.21;54.08
59337;BME280;45115;52.002;4.686;2023-03-11T12:03:29;101306.75;;;8.28;53.79
59337;BME280;45115;52.002;4.686;2023-03-11T12:06:08;101313.00;;;8.18;51.22
59337;BME280;45115;52.002;4.686;2023-03-11T12:08:41;101309.19;;;8.20;51.86
59337;BME280;45115;52.002;4.686;2023-03-11T12:11:17;101310.75;;;8.35;52.94
59337;BME280;45115;52.002;4.686;2023-03-11T12:13:55;101315.63;;;8.43;51.19
59337;BME280;45115;52.002;4.686;2023-03-11T12:16:34;101302.09;;;8.41;51.38
59337;BME280;45115;52.002;4.686;2023-03-11T12:19:12;101306.38;;;8.33;50.53
59337;BME280;45115;52.002;4.686;2023-03-11T12:21:56;101299.47;;;8.40;50.89
59337;BME280;45115;52.002;4.686;2023-03-11T12:24:39;101300.38;;;8.17;49.94
59337;BME280;45115;52.002;4.686;2023-03-11T12:27:13;101307.16;;;8.35;52.04
59337;BME280;45115;52.002;4.686;2023-03-11T12:29:43;101299.13;;;8.44;49.75
59337;BME280;45115;52.002;4.686;2023-03-11T12:32:20;101296.63;;;8.52;49.01
59337;BME280;45115;52.002;4.686;2023-03-11T12:34:48;101294.31;;;8.70;48.23
59337;BME280;45115;52.002;4.686;2023-03-11T12:37:17;101303.22;;;8.61;48.01
59337;BME280;45115;52.002;4.686;2023-03-11T12:39:46;101297.69;;;8.62;47.54
59337;BME280;45115;52.002;4.686;2023-03-11T12:42:19;101305.88;;;8.62;48.73
59337;BME280;45115;52.002;4.686;2023-03-11T12:44:47;101291.19;;;8.52;46.83
59337;BME280;45115;52.002;4.686;2023-03-11T12:47:20;101307.69;;;8.51;44.07
59337;BME280;45115;52.002;4.686;2023-03-11T12:49:48;101309.09;;;8.67;46.62
59337;BME280;45115;52.002;4.686;2023-03-11T12:52:37;101304.50;;;8.79;48.64
59337;BME280;45115;52.002;4.686;2023-03-11T12:55:34;101300.56;;;8.83;46.24
59337;BME280;45115;52.002;4.686;2023-03-11T12:58:30;101300.69;;;8.81;45.18
59337;BME280;45115;52.002;4.686;2023-03-11T13:01:16;101292.97;;;8.97;46.32
59337;BME280;45115;52.002;4.686;2023-03-11T13:03:59;101298.06;;;8.91;46.61
59337;BME280;45115;52.002;4.686;2023-03-11T13:07:00;101295.56;;;8.77;45.54
59337;BME280;45115;52.002;4.686;2023-03-11T13:09:31;101294.72;;;8.87;47.25
59337;BME280;45115;52.002;4.686;2023-03-11T13:12:00;101297.31;;;8.89;46.40
59337;BME280;45115;52.002;4.686;2023-03-11T13:14:30;101292.00;;;8.98;45.63
59337;BME280;45115;52.002;4.686;2023-03-11T13:17:22;101288.53;;;9.08;45.97